Bookmark and Share
Track history (hours):
 

Takatsugawa Maru

Last reported at 2012-Nov-22 21:33 UTC. Time now 2014-Apr-18 10:45 UTC.
Position N 34°46' E 139°43'.
Warning: this ship's position is years out of date!

Length 75 m; draft 5 m.

Type: Ship (hazmat cat B). MMSI: 431400238.

NotesDate/timePositionNaut miles runAvg speedWind from/ knotsBaromVisibWave heightAir tempDewpointWater temp
2012-Nov-22 21:33N 34°46' E 139°43'20 9.7
2012-Nov-22 19:29N 34°55' E 140°04'39 9.9
2012-Nov-22 15:32N 35°23' E 140°38'  
2012-Nov-16 21:26N 35°55' E 140°40'6 1.0
2012-Nov-16 15:30N 35°54' E 140°47'73 9.2
2012-Nov-16 07:33N 35°02' E 139°44'1211.7
2012-Nov-16 06:34N 35°13' E 139°46'1111.2
2012-Nov-16 05:36N 35°24' E 139°43'1312.1
2012-Nov-16 04:34N 35°31' E 139°55'1010.0
2012-Nov-16 03:33N 35°34' E 140°07'0 0.1
2012-Nov-16 02:32N 35°34' E 140°07'0 0.0
2012-Nov-16 01:32N 35°34' E 140°07'0 0.0
2012-Nov-16 00:29N 35°34' E 140°07'0 0.0
2012-Nov-15 23:32N 35°34' E 140°07'0 0.0
2012-Nov-15 21:26N 35°34' E 140°07'0 0.0
2012-Nov-15 20:32N 35°34' E 140°07'0 0.0
2012-Nov-15 19:32N 35°34' E 140°07'0 0.0
2012-Nov-15 18:32N 35°34' E 140°07'0 0.0
2012-Nov-15 17:32N 35°34' E 140°07'0 0.0
2012-Nov-15 16:32N 35°34' E 140°07'0 0.0
2012-Nov-15 15:32N 35°34' E 140°07'0 0.0
2012-Nov-15 14:32N 35°34' E 140°07'0 0.0
2012-Nov-15 13:32N 35°34' E 140°07'0 0.0
2012-Nov-15 12:32N 35°34' E 140°07'0 0.0
2012-Nov-15 11:35N 35°34' E 140°07'0 0.0
2012-Nov-15 10:32N 35°34' E 140°07'0 0.0
2012-Nov-15 09:32N 35°34' E 140°07'0 0.0
2012-Nov-15 08:29N 35°34' E 140°07'0 0.0
2012-Nov-15 07:32N 35°34' E 140°07'0 0.0
2012-Nov-15 06:32N 35°34' E 140°07'0 0.0
2012-Nov-15 05:35N 35°34' E 140°07'0 0.0
2012-Nov-15 04:32N 35°34' E 140°07'0 0.0
2012-Nov-15 03:32N 35°34' E 140°07'1 1.2
2012-Nov-15 02:33N 35°35' E 140°06'4 3.4
2012-Nov-15 01:28N 35°34' E 140°02'0 0.0
2012-Nov-15 00:31N 35°34' E 140°02'0 0.0
2012-Nov-14 23:31N 35°34' E 140°02'0 0.2
2012-Nov-14 22:34N 35°34' E 140°02'10 9.8
2012-Nov-14 21:33N 35°28' E 139°52'1111.1
2012-Nov-14 20:33N 35°19' E 139°44'1110.9
2012-Nov-14 19:33N 35°08' E 139°46'1111.1
2012-Nov-14 18:33N 34°57' E 139°44'16 8.0
2012-Nov-14 16:30N 34°56' E 140°04'3010.1
2012-Nov-14 13:30N 35°15' E 140°33'1110.4
2012-Nov-14 12:30N 35°24' E 140°39'910.3
2012-Nov-14 11:35N 35°31' E 140°46'  

Dump ship's entire track history

sailing weather and tide predictions

Takatsugawa Maru — JG5270 — position and weather